sensor_id;sensor_type;location;lat;lon;timestamp;P1;durP1;ratioP1;P2;durP2;ratioP2
50900;SDS011;36879;51.416;6.678;2022-08-25T00:01:11;2.85;;;1.83;;
50900;SDS011;36879;51.416;6.678;2022-08-25T00:03:38;3.40;;;2.30;;
50900;SDS011;36879;51.416;6.678;2022-08-25T00:06:05;3.60;;;1.83;;
50900;SDS011;36879;51.416;6.678;2022-08-25T00:08:31;3.00;;;2.10;;
50900;SDS011;36879;51.416;6.678;2022-08-25T00:10:59;3.17;;;1.77;;
50900;SDS011;36879;51.416;6.678;2022-08-25T00:13:25;4.07;;;1.83;;
50900;SDS011;36879;51.416;6.678;2022-08-25T00:15:52;5.05;;;2.00;;
50900;SDS011;36879;51.416;6.678;2022-08-25T00:18:19;2.92;;;1.95;;
50900;SDS011;36879;51.416;6.678;2022-08-25T00:20:46;7.65;;;2.67;;
50900;SDS011;36879;51.416;6.678;2022-08-25T00:23:12;4.70;;;2.13;;
50900;SDS011;36879;51.416;6.678;2022-08-25T00:25:38;3.53;;;2.00;;
50900;SDS011;36879;51.416;6.678;2022-08-25T00:28:04;5.47;;;2.55;;
50900;SDS011;36879;51.416;6.678;2022-08-25T00:30:30;4.90;;;2.22;;
50900;SDS011;36879;51.416;6.678;2022-08-25T00:32:56;4.25;;;2.25;;
50900;SDS011;36879;51.416;6.678;2022-08-25T00:35:23;5.15;;;2.70;;
50900;SDS011;36879;51.416;6.678;2022-08-25T00:37:49;3.65;;;2.47;;
50900;SDS011;36879;51.416;6.678;2022-08-25T00:40:15;10.45;;;2.88;;
50900;SDS011;36879;51.416;6.678;2022-08-25T00:42:41;4.97;;;2.47;;
50900;SDS011;36879;51.416;6.678;2022-08-25T00:45:08;4.78;;;3.05;;
50900;SDS011;36879;51.416;6.678;2022-08-25T00:47:34;6.43;;;3.10;;
50900;SDS011;36879;51.416;6.678;2022-08-25T00:50:02;4.15;;;2.85;;
50900;SDS011;36879;51.416;6.678;2022-08-25T00:52:37;9.57;;;3.47;;
50900;SDS011;36879;51.416;6.678;2022-08-25T00:57:32;3.55;;;2.55;;
50900;SDS011;36879;51.416;6.678;2022-08-25T00:59:58;3.47;;;2.40;;
50900;SDS011;36879;51.416;6.678;2022-08-25T01:02:25;4.03;;;2.70;;
50900;SDS011;36879;51.416;6.678;2022-08-25T01:04:51;4.50;;;2.42;;
50900;SDS011;36879;51.416;6.678;2022-08-25T01:07:17;3.58;;;2.20;;
50900;SDS011;36879;51.416;6.678;2022-08-25T01:09:45;4.78;;;2.92;;
50900;SDS011;36879;51.416;6.678;2022-08-25T01:12:11;4.30;;;2.50;;
50900;SDS011;36879;51.416;6.678;2022-08-25T01:14:37;4.22;;;2.60;;
50900;SDS011;36879;51.416;6.678;2022-08-25T01:17:04;3.53;;;2.60;;
50900;SDS011;36879;51.416;6.678;2022-08-25T01:19:30;4.53;;;2.70;;
50900;SDS011;36879;51.416;6.678;2022-08-25T01:21:59;3.25;;;2.50;;
50900;SDS011;36879;51.416;6.678;2022-08-25T01:27:04;3.15;;;2.15;;
50900;SDS011;36879;51.416;6.678;2022-08-25T01:29:30;4.55;;;2.53;;
50900;SDS011;36879;51.416;6.678;2022-08-25T01:31:57;5.05;;;2.33;;
50900;SDS011;36879;51.416;6.678;2022-08-25T01:34:24;4.63;;;2.28;;
50900;SDS011;36879;51.416;6.678;2022-08-25T01:36:51;5.03;;;3.33;;
50900;SDS011;36879;51.416;6.678;2022-08-25T01:39:17;4.28;;;2.30;;
50900;SDS011;36879;51.416;6.678;2022-08-25T01:41:48;9.18;;;2.88;;
50900;SDS011;36879;51.416;6.678;2022-08-25T01:44:15;4.82;;;2.72;;
50900;SDS011;36879;51.416;6.678;2022-08-25T01:46:41;5.43;;;2.22;;
50900;SDS011;36879;51.416;6.678;2022-08-25T01:49:07;3.88;;;2.08;;
50900;SDS011;36879;51.416;6.678;2022-08-25T01:51:39;5.85;;;2.53;;
50900;SDS011;36879;51.416;6.678;2022-08-25T01:54:07;4.57;;;3.05;;
50900;SDS011;36879;51.416;6.678;2022-08-25T01:56:33;4.68;;;2.42;;
50900;SDS011;36879;51.416;6.678;2022-08-25T01:58:59;4.13;;;3.00;;
50900;SDS011;36879;51.416;6.678;2022-08-25T02:01:25;4.97;;;2.30;;
50900;SDS011;36879;51.416;6.678;2022-08-25T02:03:52;5.65;;;2.55;;
50900;SDS011;36879;51.416;6.678;2022-08-25T02:06:20;3.90;;;2.65;;
50900;SDS011;36879;51.416;6.678;2022-08-25T02:08:49;7.22;;;3.50;;
50900;SDS011;36879;51.416;6.678;2022-08-25T02:11:15;3.63;;;2.03;;
50900;SDS011;36879;51.416;6.678;2022-08-25T02:13:41;3.65;;;2.25;;
50900;SDS011;36879;51.416;6.678;2022-08-25T02:16:08;6.13;;;2.65;;
50900;SDS011;36879;51.416;6.678;2022-08-25T02:18:35;5.22;;;2.20;;
50900;SDS011;36879;51.416;6.678;2022-08-25T02:21:01;5.07;;;3.70;;
50900;SDS011;36879;51.416;6.678;2022-08-25T02:23:27;3.05;;;2.00;;
50900;SDS011;36879;51.416;6.678;2022-08-25T02:25:53;6.35;;;3.33;;
50900;SDS011;36879;51.416;6.678;2022-08-25T02:28:21;6.47;;;3.22;;
50900;SDS011;36879;51.416;6.678;2022-08-25T02:30:47;4.88;;;2.70;;
50900;SDS011;36879;51.416;6.678;2022-08-25T02:33:13;4.22;;;3.05;;
50900;SDS011;36879;51.416;6.678;2022-08-25T02:35:39;14.15;;;3.08;;
50900;SDS011;36879;51.416;6.678;2022-08-25T02:38:06;4.15;;;2.67;;
50900;SDS011;36879;51.416;6.678;2022-08-25T02:40:32;3.45;;;2.08;;
50900;SDS011;36879;51.416;6.678;2022-08-25T02:42:58;5.03;;;2.95;;
50900;SDS011;36879;51.416;6.678;2022-08-25T02:45:24;4.68;;;3.17;;
50900;SDS011;36879;51.416;6.678;2022-08-25T02:47:50;11.32;;;2.95;;
50900;SDS011;36879;51.416;6.678;2022-08-25T02:50:17;3.70;;;2.67;;
50900;SDS011;36879;51.416;6.678;2022-08-25T02:52:43;5.15;;;2.88;;
50900;SDS011;36879;51.416;6.678;2022-08-25T02:55:10;3.60;;;2.85;;
50900;SDS011;36879;51.416;6.678;2022-08-25T02:57:38;7.55;;;3.35;;
50900;SDS011;36879;51.416;6.678;2022-08-25T03:00:05;4.10;;;3.03;;
50900;SDS011;36879;51.416;6.678;2022-08-25T03:02:31;4.90;;;2.17;;
50900;SDS011;36879;51.416;6.678;2022-08-25T03:04:57;4.35;;;2.83;;
50900;SDS011;36879;51.416;6.678;2022-08-25T03:07:23;4.50;;;2.55;;
50900;SDS011;36879;51.416;6.678;2022-08-25T03:09:49;4.82;;;2.53;;
50900;SDS011;36879;51.416;6.678;2022-08-25T03:12:15;5.10;;;3.10;;
50900;SDS011;36879;51.416;6.678;2022-08-25T03:14:42;5.57;;;2.83;;
50900;SDS011;36879;51.416;6.678;2022-08-25T03:17:08;2.78;;;2.25;;
50900;SDS011;36879;51.416;6.678;2022-08-25T03:19:34;4.80;;;2.83;;
50900;SDS011;36879;51.416;6.678;2022-08-25T03:22:00;4.88;;;2.90;;
50900;SDS011;36879;51.416;6.678;2022-08-25T03:24:26;3.83;;;2.78;;
50900;SDS011;36879;51.416;6.678;2022-08-25T03:26:53;10.05;;;3.15;;
50900;SDS011;36879;51.416;6.678;2022-08-25T03:29:23;6.80;;;3.40;;
50900;SDS011;36879;51.416;6.678;2022-08-25T03:31:50;5.70;;;3.03;;
50900;SDS011;36879;51.416;6.678;2022-08-25T03:34:17;8.63;;;3.08;;
50900;SDS011;36879;51.416;6.678;2022-08-25T03:36:45;5.53;;;3.25;;
50900;SDS011;36879;51.416;6.678;2022-08-25T03:39:11;3.80;;;2.85;;
50900;SDS011;36879;51.416;6.678;2022-08-25T03:41:38;7.05;;;3.28;;
50900;SDS011;36879;51.416;6.678;2022-08-25T03:44:04;5.65;;;3.42;;
50900;SDS011;36879;51.416;6.678;2022-08-25T03:46:32;4.60;;;2.97;;
50900;SDS011;36879;51.416;6.678;2022-08-25T03:49:00;6.88;;;3.55;;
50900;SDS011;36879;51.416;6.678;2022-08-25T03:51:47;5.80;;;2.92;;
50900;SDS011;36879;51.416;6.678;2022-08-25T03:56:38;7.60;;;3.42;;
50900;SDS011;36879;51.416;6.678;2022-08-25T03:59:05;6.55;;;3.45;;
50900;SDS011;36879;51.416;6.678;2022-08-25T04:01:34;6.72;;;3.08;;
50900;SDS011;36879;51.416;6.678;2022-08-25T04:04:01;4.18;;;3.00;;
50900;SDS011;36879;51.416;6.678;2022-08-25T04:06:27;8.00;;;3.88;;
50900;SDS011;36879;51.416;6.678;2022-08-25T04:08:53;5.10;;;3.45;;
50900;SDS011;36879;51.416;6.678;2022-08-25T04:11:20;7.95;;;3.45;;
50900;SDS011;36879;51.416;6.678;2022-08-25T04:13:46;5.50;;;3.10;;
50900;SDS011;36879;51.416;6.678;2022-08-25T04:16:16;6.57;;;3.78;;
50900;SDS011;36879;51.416;6.678;2022-08-25T04:18:43;4.57;;;3.72;;
50900;SDS011;36879;51.416;6.678;2022-08-25T04:21:10;5.68;;;3.75;;
50900;SDS011;36879;51.416;6.678;2022-08-25T04:23:37;6.95;;;3.50;;
50900;SDS011;36879;51.416;6.678;2022-08-25T04:26:11;7.47;;;3.55;;
50900;SDS011;36879;51.416;6.678;2022-08-25T04:28:38;10.50;;;3.50;;
50900;SDS011;36879;51.416;6.678;2022-08-25T04:31:05;7.43;;;3.90;;
50900;SDS011;36879;51.416;6.678;2022-08-25T04:33:31;5.45;;;3.90;;
50900;SDS011;36879;51.416;6.678;2022-08-25T04:35:58;6.43;;;3.22;;
50900;SDS011;36879;51.416;6.678;2022-08-25T04:38:24;5.28;;;3.50;;
50900;SDS011;36879;51.416;6.678;2022-08-25T04:41:10;6.28;;;3.35;;
50900;SDS011;36879;51.416;6.678;2022-08-25T04:43:37;6.47;;;3.38;;
50900;SDS011;36879;51.416;6.678;2022-08-25T04:46:05;7.35;;;4.13;;
50900;SDS011;36879;51.416;6.678;2022-08-25T04:48:31;14.18;;;3.53;;
50900;SDS011;36879;51.416;6.678;2022-08-25T04:50:57;6.63;;;4.38;;
50900;SDS011;36879;51.416;6.678;2022-08-25T04:53:23;6.85;;;3.97;;
50900;SDS011;36879;51.416;6.678;2022-08-25T04:55:49;6.80;;;3.22;;
50900;SDS011;36879;51.416;6.678;2022-08-25T04:58:15;9.73;;;3.97;;
50900;SDS011;36879;51.416;6.678;2022-08-25T05:00:41;6.22;;;3.78;;
50900;SDS011;36879;51.416;6.678;2022-08-25T05:03:08;4.75;;;3.50;;
50900;SDS011;36879;51.416;6.678;2022-08-25T05:05:35;7.13;;;4.28;;
50900;SDS011;36879;51.416;6.678;2022-08-25T05:08:01;4.72;;;3.50;;
50900;SDS011;36879;51.416;6.678;2022-08-25T05:10:28;12.55;;;4.72;;
50900;SDS011;36879;51.416;6.678;2022-08-25T05:12:54;16.48;;;4.95;;
50900;SDS011;36879;51.416;6.678;2022-08-25T05:15:20;7.57;;;4.43;;
50900;SDS011;36879;51.416;6.678;2022-08-25T05:18:05;12.68;;;4.88;;
50900;SDS011;36879;51.416;6.678;2022-08-25T05:20:31;10.93;;;4.20;;
50900;SDS011;36879;51.416;6.678;2022-08-25T05:22:57;10.25;;;4.68;;
50900;SDS011;36879;51.416;6.678;2022-08-25T05:25:23;8.82;;;4.07;;
50900;SDS011;36879;51.416;6.678;2022-08-25T05:27:49;9.23;;;4.68;;
50900;SDS011;36879;51.416;6.678;2022-08-25T05:30:15;11.63;;;4.72;;
50900;SDS011;36879;51.416;6.678;2022-08-25T05:32:41;11.90;;;5.32;;
50900;SDS011;36879;51.416;6.678;2022-08-25T05:35:07;13.43;;;5.68;;
50900;SDS011;36879;51.416;6.678;2022-08-25T05:37:33;10.45;;;4.30;;
50900;SDS011;36879;51.416;6.678;2022-08-25T05:39:59;10.15;;;4.07;;
50900;SDS011;36879;51.416;6.678;2022-08-25T05:42:26;9.88;;;4.18;;
50900;SDS011;36879;51.416;6.678;2022-08-25T05:44:53;9.10;;;3.40;;
50900;SDS011;36879;51.416;6.678;2022-08-25T05:47:19;12.48;;;5.28;;
50900;SDS011;36879;51.416;6.678;2022-08-25T05:49:45;5.80;;;3.97;;
50900;SDS011;36879;51.416;6.678;2022-08-25T05:52:11;10.77;;;4.95;;
50900;SDS011;36879;51.416;6.678;2022-08-25T05:54:37;24.02;;;4.90;;
50900;SDS011;36879;51.416;6.678;2022-08-25T05:57:04;8.95;;;3.80;;
50900;SDS011;36879;51.416;6.678;2022-08-25T05:59:31;9.52;;;5.22;;
50900;SDS011;36879;51.416;6.678;2022-08-25T06:01:57;12.27;;;4.60;;
50900;SDS011;36879;51.416;6.678;2022-08-25T06:04:42;13.15;;;4.80;;
50900;SDS011;36879;51.416;6.678;2022-08-25T06:07:08;7.47;;;3.65;;
50900;SDS011;36879;51.416;6.678;2022-08-25T06:09:36;9.52;;;3.97;;
50900;SDS011;36879;51.416;6.678;2022-08-25T06:12:03;12.23;;;4.65;;
50900;SDS011;36879;51.416;6.678;2022-08-25T06:14:29;19.23;;;4.82;;
50900;SDS011;36879;51.416;6.678;2022-08-25T06:16:55;10.25;;;5.10;;
50900;SDS011;36879;51.416;6.678;2022-08-25T06:19:21;14.95;;;4.53;;
50900;SDS011;36879;51.416;6.678;2022-08-25T06:21:47;11.63;;;4.72;;
50900;SDS011;36879;51.416;6.678;2022-08-25T06:24:14;9.02;;;3.83;;
50900;SDS011;36879;51.416;6.678;2022-08-25T06:26:40;6.85;;;3.50;;
50900;SDS011;36879;51.416;6.678;2022-08-25T06:29:06;7.40;;;4.03;;
50900;SDS011;36879;51.416;6.678;2022-08-25T06:31:32;14.00;;;4.13;;
50900;SDS011;36879;51.416;6.678;2022-08-25T06:33:58;9.25;;;4.18;;
50900;SDS011;36879;51.416;6.678;2022-08-25T06:36:24;14.55;;;4.70;;
50900;SDS011;36879;51.416;6.678;2022-08-25T06:38:50;6.10;;;3.40;;
50900;SDS011;36879;51.416;6.678;2022-08-25T06:41:17;7.70;;;4.30;;
50900;SDS011;36879;51.416;6.678;2022-08-25T06:43:43;9.65;;;4.50;;
50900;SDS011;36879;51.416;6.678;2022-08-25T06:46:13;10.95;;;4.00;;
50900;SDS011;36879;51.416;6.678;2022-08-25T06:48:39;11.90;;;4.05;;
50900;SDS011;36879;51.416;6.678;2022-08-25T06:51:10;9.13;;;4.85;;
50900;SDS011;36879;51.416;6.678;2022-08-25T06:53:37;8.63;;;3.90;;
50900;SDS011;36879;51.416;6.678;2022-08-25T06:56:03;10.18;;;3.47;;
50900;SDS011;36879;51.416;6.678;2022-08-25T06:58:30;11.23;;;3.45;;
50900;SDS011;36879;51.416;6.678;2022-08-25T07:01:04;11.45;;;3.60;;
50900;SDS011;36879;51.416;6.678;2022-08-25T07:03:31;20.27;;;5.18;;
50900;SDS011;36879;51.416;6.678;2022-08-25T07:05:57;11.57;;;3.60;;
50900;SDS011;36879;51.416;6.678;2022-08-25T07:08:23;8.80;;;3.72;;
50900;SDS011;36879;51.416;6.678;2022-08-25T07:10:50;10.45;;;3.45;;
50900;SDS011;36879;51.416;6.678;2022-08-25T07:13:16;10.40;;;3.85;;
50900;SDS011;36879;51.416;6.678;2022-08-25T07:15:42;6.57;;;4.18;;
50900;SDS011;36879;51.416;6.678;2022-08-25T07:18:09;12.80;;;3.63;;
50900;SDS011;36879;51.416;6.678;2022-08-25T07:20:38;7.97;;;3.25;;
50900;SDS011;36879;51.416;6.678;2022-08-25T07:23:05;6.65;;;3.75;;
50900;SDS011;36879;51.416;6.678;2022-08-25T07:25:32;9.40;;;3.78;;
50900;SDS011;36879;51.416;6.678;2022-08-25T07:27:58;6.65;;;2.45;;
50900;SDS011;36879;51.416;6.678;2022-08-25T07:30:24;8.02;;;3.45;;
50900;SDS011;36879;51.416;6.678;2022-08-25T07:32:51;7.90;;;3.03;;
50900;SDS011;36879;51.416;6.678;2022-08-25T07:35:18;5.55;;;2.38;;
50900;SDS011;36879;51.416;6.678;2022-08-25T07:37:48;6.45;;;2.72;;
50900;SDS011;36879;51.416;6.678;2022-08-25T07:40:16;4.97;;;2.70;;
50900;SDS011;36879;51.416;6.678;2022-08-25T07:42:43;8.23;;;2.22;;
50900;SDS011;36879;51.416;6.678;2022-08-25T07:45:10;4.00;;;2.58;;
50900;SDS011;36879;51.416;6.678;2022-08-25T07:47:36;7.00;;;2.83;;
50900;SDS011;36879;51.416;6.678;2022-08-25T07:50:04;9.60;;;2.45;;
50900;SDS011;36879;51.416;6.678;2022-08-25T07:52:30;4.35;;;1.98;;
50900;SDS011;36879;51.416;6.678;2022-08-25T07:54:56;4.57;;;2.40;;
50900;SDS011;36879;51.416;6.678;2022-08-25T07:57:22;5.07;;;2.17;;
50900;SDS011;36879;51.416;6.678;2022-08-25T07:59:50;6.18;;;2.90;;
50900;SDS011;36879;51.416;6.678;2022-08-25T08:02:16;6.65;;;2.10;;
50900;SDS011;36879;51.416;6.678;2022-08-25T08:04:42;5.22;;;2.97;;
50900;SDS011;36879;51.416;6.678;2022-08-25T08:07:09;10.05;;;3.05;;
50900;SDS011;36879;51.416;6.678;2022-08-25T08:09:36;4.22;;;2.25;;
50900;SDS011;36879;51.416;6.678;2022-08-25T08:12:02;6.10;;;2.92;;
50900;SDS011;36879;51.416;6.678;2022-08-25T08:14:29;3.78;;;2.25;;
50900;SDS011;36879;51.416;6.678;2022-08-25T08:16:55;11.77;;;2.03;;
50900;SDS011;36879;51.416;6.678;2022-08-25T08:19:21;5.45;;;2.58;;
50900;SDS011;36879;51.416;6.678;2022-08-25T08:21:48;4.75;;;1.90;;
50900;SDS011;36879;51.416;6.678;2022-08-25T08:24:14;6.93;;;2.58;;
50900;SDS011;36879;51.416;6.678;2022-08-25T08:26:40;3.50;;;2.10;;
50900;SDS011;36879;51.416;6.678;2022-08-25T08:29:06;16.95;;;2.92;;
50900;SDS011;36879;51.416;6.678;2022-08-25T08:31:32;4.88;;;2.30;;
50900;SDS011;36879;51.416;6.678;2022-08-25T08:33:58;5.55;;;2.83;;
50900;SDS011;36879;51.416;6.678;2022-08-25T08:36:25;5.50;;;2.20;;
50900;SDS011;36879;51.416;6.678;2022-08-25T08:38:52;6.13;;;2.30;;
50900;SDS011;36879;51.416;6.678;2022-08-25T08:52:21;5.75;;;2.22;;
50900;SDS011;36879;51.416;6.678;2022-08-25T08:54:51;5.00;;;2.28;;
50900;SDS011;36879;51.416;6.678;2022-08-25T08:57:21;11.63;;;2.80;;
50900;SDS011;36879;51.416;6.678;2022-08-25T08:59:54;4.15;;;2.05;;
50900;SDS011;36879;51.416;6.678;2022-08-25T09:04:53;5.38;;;2.65;;
50900;SDS011;36879;51.416;6.678;2022-08-25T09:07:21;6.60;;;2.45;;
50900;SDS011;36879;51.416;6.678;2022-08-25T09:09:48;4.72;;;2.28;;
50900;SDS011;36879;51.416;6.678;2022-08-25T09:12:32;6.95;;;3.13;;
50900;SDS011;36879;51.416;6.678;2022-08-25T09:15:16;4.15;;;2.33;;
50900;SDS011;36879;51.416;6.678;2022-08-25T09:21:12;7.00;;;2.10;;
50900;SDS011;36879;51.416;6.678;2022-08-25T09:31:16;6.57;;;2.20;;
50900;SDS011;36879;51.416;6.678;2022-08-25T09:33:43;3.33;;;1.83;;
50900;SDS011;36879;51.416;6.678;2022-08-25T09:36:10;3.30;;;1.80;;
50900;SDS011;36879;51.416;6.678;2022-08-25T09:38:36;5.20;;;2.40;;
50900;SDS011;36879;51.416;6.678;2022-08-25T09:41:02;3.50;;;2.28;;
50900;SDS011;36879;51.416;6.678;2022-08-25T09:48:50;4.15;;;2.13;;
50900;SDS011;36879;51.416;6.678;2022-08-25T09:51:24;5.65;;;2.47;;
50900;SDS011;36879;51.416;6.678;2022-08-25T09:53:57;6.88;;;2.08;;
50900;SDS011;36879;51.416;6.678;2022-08-25T09:56:25;4.38;;;2.47;;
50900;SDS011;36879;51.416;6.678;2022-08-25T09:58:52;3.47;;;1.92;;
50900;SDS011;36879;51.416;6.678;2022-08-25T10:01:20;4.00;;;1.90;;
50900;SDS011;36879;51.416;6.678;2022-08-25T10:03:57;4.63;;;2.03;;
50900;SDS011;36879;51.416;6.678;2022-08-25T10:06:24;6.18;;;2.90;;
50900;SDS011;36879;51.416;6.678;2022-08-25T10:08:55;5.95;;;2.10;;
50900;SDS011;36879;51.416;6.678;2022-08-25T10:14:27;5.88;;;2.20;;
50900;SDS011;36879;51.416;6.678;2022-08-25T10:17:10;3.70;;;2.00;;
50900;SDS011;36879;51.416;6.678;2022-08-25T10:19:36;6.53;;;2.42;;
50900;SDS011;36879;51.416;6.678;2022-08-25T10:24:28;2.97;;;1.92;;
50900;SDS011;36879;51.416;6.678;2022-08-25T10:32:03;4.38;;;1.85;;
50900;SDS011;36879;51.416;6.678;2022-08-25T10:34:44;5.18;;;1.70;;
50900;SDS011;36879;51.416;6.678;2022-08-25T10:37:13;3.65;;;1.83;;
50900;SDS011;36879;51.416;6.678;2022-08-25T10:39:44;7.55;;;2.10;;
50900;SDS011;36879;51.416;6.678;2022-08-25T10:44:57;2.78;;;1.52;;
50900;SDS011;36879;51.416;6.678;2022-08-25T10:50:32;3.13;;;1.88;;
50900;SDS011;36879;51.416;6.678;2022-08-25T11:01:08;2.70;;;1.55;;
50900;SDS011;36879;51.416;6.678;2022-08-25T11:03:49;5.32;;;2.10;;
50900;SDS011;36879;51.416;6.678;2022-08-25T11:06:24;2.67;;;2.00;;
50900;SDS011;36879;51.416;6.678;2022-08-25T11:08:55;2.65;;;1.52;;
50900;SDS011;36879;51.416;6.678;2022-08-25T11:11:33;4.57;;;1.50;;
50900;SDS011;36879;51.416;6.678;2022-08-25T11:14:02;4.63;;;1.85;;
50900;SDS011;36879;51.416;6.678;2022-08-25T11:16:44;4.05;;;2.10;;
50900;SDS011;36879;51.416;6.678;2022-08-25T11:19:34;5.35;;;1.80;;
50900;SDS011;36879;51.416;6.678;2022-08-25T11:22:12;3.97;;;2.05;;
50900;SDS011;36879;51.416;6.678;2022-08-25T11:27:22;4.40;;;1.80;;
50900;SDS011;36879;51.416;6.678;2022-08-25T11:29:58;12.45;;;2.10;;
50900;SDS011;36879;51.416;6.678;2022-08-25T11:32:27;2.88;;;1.90;;
50900;SDS011;36879;51.416;6.678;2022-08-25T11:34:59;4.43;;;1.50;;
50900;SDS011;36879;51.416;6.678;2022-08-25T11:37:26;18.88;;;2.58;;
50900;SDS011;36879;51.416;6.678;2022-08-25T11:40:05;2.90;;;1.73;;
50900;SDS011;36879;51.416;6.678;2022-08-25T11:42:52;5.22;;;1.73;;
50900;SDS011;36879;51.416;6.678;2022-08-25T11:52:47;7.35;;;1.40;;
50900;SDS011;36879;51.416;6.678;2022-08-25T11:55:19;3.80;;;1.40;;
50900;SDS011;36879;51.416;6.678;2022-08-25T11:57:48;3.17;;;1.25;;
50900;SDS011;36879;51.416;6.678;2022-08-25T12:00:34;2.58;;;1.80;;
50900;SDS011;36879;51.416;6.678;2022-08-25T12:03:25;3.88;;;1.95;;
50900;SDS011;36879;51.416;6.678;2022-08-25T12:05:50;2.35;;;1.40;;
50900;SDS011;36879;51.416;6.678;2022-08-25T12:08:27;4.85;;;1.52;;
50900;SDS011;36879;51.416;6.678;2022-08-25T12:11:03;2.58;;;1.42;;
50900;SDS011;36879;51.416;6.678;2022-08-25T12:16:04;2.38;;;1.42;;
50900;SDS011;36879;51.416;6.678;2022-08-25T12:23:29;3.78;;;1.63;;
50900;SDS011;36879;51.416;6.678;2022-08-25T12:26:00;2.13;;;1.45;;
50900;SDS011;36879;51.416;6.678;2022-08-25T12:31:29;2.00;;;1.40;;
50900;SDS011;36879;51.416;6.678;2022-08-25T12:36:48;2.47;;;1.42;;
50900;SDS011;36879;51.416;6.678;2022-08-25T12:39:20;3.22;;;1.52;;
50900;SDS011;36879;51.416;6.678;2022-08-25T12:41:55;4.90;;;2.03;;
50900;SDS011;36879;51.416;6.678;2022-08-25T12:49:43;4.97;;;1.45;;
50900;SDS011;36879;51.416;6.678;2022-08-25T12:52:22;2.97;;;1.20;;
50900;SDS011;36879;51.416;6.678;2022-08-25T12:54:57;3.53;;;1.55;;
50900;SDS011;36879;51.416;6.678;2022-08-25T12:59:51;3.15;;;1.83;;
50900;SDS011;36879;51.416;6.678;2022-08-25T13:07:39;2.45;;;1.20;;
50900;SDS011;36879;51.416;6.678;2022-08-25T13:12:39;2.20;;;1.35;;
50900;SDS011;36879;51.416;6.678;2022-08-25T13:15:10;2.72;;;1.50;;
50900;SDS011;36879;51.416;6.678;2022-08-25T13:17:37;3.67;;;1.20;;
50900;SDS011;36879;51.416;6.678;2022-08-25T13:20:10;2.25;;;1.55;;
50900;SDS011;36879;51.416;6.678;2022-08-25T13:22:36;2.03;;;1.20;;
50900;SDS011;36879;51.416;6.678;2022-08-25T13:25:03;2.03;;;1.17;;
50900;SDS011;36879;51.416;6.678;2022-08-25T13:27:29;4.25;;;1.40;;
50900;SDS011;36879;51.416;6.678;2022-08-25T13:29:57;2.00;;;1.15;;
50900;SDS011;36879;51.416;6.678;2022-08-25T13:32:28;4.82;;;1.85;;
50900;SDS011;36879;51.416;6.678;2022-08-25T13:37:33;4.57;;;1.38;;
50900;SDS011;36879;51.416;6.678;2022-08-25T13:40:06;2.60;;;1.50;;
50900;SDS011;36879;51.416;6.678;2022-08-25T13:42:32;2.78;;;1.27;;
50900;SDS011;36879;51.416;6.678;2022-08-25T13:45:00;3.38;;;1.20;;
50900;SDS011;36879;51.416;6.678;2022-08-25T13:47:39;3.15;;;1.80;;
50900;SDS011;36879;51.416;6.678;2022-08-25T13:50:16;3.00;;;1.50;;
50900;SDS011;36879;51.416;6.678;2022-08-25T13:52:50;2.40;;;1.63;;
50900;SDS011;36879;51.416;6.678;2022-08-25T13:55:18;1.85;;;1.30;;
50900;SDS011;36879;51.416;6.678;2022-08-25T13:57:45;4.65;;;1.30;;
50900;SDS011;36879;51.416;6.678;2022-08-25T14:00:12;5.45;;;1.70;;
50900;SDS011;36879;51.416;6.678;2022-08-25T14:02:48;1.67;;;1.13;;
50900;SDS011;36879;51.416;6.678;2022-08-25T14:05:15;4.22;;;1.58;;
50900;SDS011;36879;51.416;6.678;2022-08-25T14:07:51;5.90;;;3.03;;
50900;SDS011;36879;51.416;6.678;2022-08-25T14:13:06;2.65;;;1.20;;
50900;SDS011;36879;51.416;6.678;2022-08-25T14:15:33;2.25;;;1.40;;
50900;SDS011;36879;51.416;6.678;2022-08-25T14:20:26;3.40;;;1.73;;
50900;SDS011;36879;51.416;6.678;2022-08-25T14:22:56;2.45;;;1.85;;
50900;SDS011;36879;51.416;6.678;2022-08-25T14:25:24;4.72;;;1.45;;
50900;SDS011;36879;51.416;6.678;2022-08-25T14:27:54;3.70;;;2.10;;
50900;SDS011;36879;51.416;6.678;2022-08-25T14:30:21;2.50;;;1.50;;
50900;SDS011;36879;51.416;6.678;2022-08-25T14:32:47;4.97;;;2.30;;
50900;SDS011;36879;51.416;6.678;2022-08-25T14:35:13;2.70;;;1.45;;
50900;SDS011;36879;51.416;6.678;2022-08-25T14:37:39;3.67;;;1.50;;
50900;SDS011;36879;51.416;6.678;2022-08-25T14:40:05;2.03;;;1.48;;
50900;SDS011;36879;51.416;6.678;2022-08-25T14:42:32;6.07;;;2.05;;
50900;SDS011;36879;51.416;6.678;2022-08-25T14:44:58;2.28;;;1.67;;
50900;SDS011;36879;51.416;6.678;2022-08-25T14:47:24;4.03;;;1.58;;
50900;SDS011;36879;51.416;6.678;2022-08-25T14:49:50;2.05;;;1.40;;
50900;SDS011;36879;51.416;6.678;2022-08-25T14:52:26;2.40;;;1.48;;
50900;SDS011;36879;51.416;6.678;2022-08-25T14:54:53;6.10;;;2.15;;
50900;SDS011;36879;51.416;6.678;2022-08-25T14:57:21;1.90;;;1.25;;
50900;SDS011;36879;51.416;6.678;2022-08-25T14:59:47;3.53;;;1.35;;
50900;SDS011;36879;51.416;6.678;2022-08-25T15:02:14;2.38;;;1.48;;
50900;SDS011;36879;51.416;6.678;2022-08-25T15:04:48;2.67;;;1.55;;
50900;SDS011;36879;51.416;6.678;2022-08-25T15:07:15;3.28;;;1.88;;
50900;SDS011;36879;51.416;6.678;2022-08-25T15:10:00;2.10;;;1.48;;
50900;SDS011;36879;51.416;6.678;2022-08-25T15:12:26;1.98;;;1.33;;
50900;SDS011;36879;51.416;6.678;2022-08-25T15:14:52;2.45;;;1.70;;
50900;SDS011;36879;51.416;6.678;2022-08-25T15:17:20;3.13;;;1.60;;
50900;SDS011;36879;51.416;6.678;2022-08-25T15:19:46;5.78;;;1.85;;
50900;SDS011;36879;51.416;6.678;2022-08-25T15:22:12;3.65;;;1.65;;
50900;SDS011;36879;51.416;6.678;2022-08-25T15:24:38;6.78;;;1.40;;
50900;SDS011;36879;51.416;6.678;2022-08-25T15:27:04;2.92;;;1.50;;
50900;SDS011;36879;51.416;6.678;2022-08-25T15:29:32;2.70;;;1.70;;
50900;SDS011;36879;51.416;6.678;2022-08-25T15:32:02;3.28;;;1.40;;
50900;SDS011;36879;51.416;6.678;2022-08-25T15:34:28;2.88;;;1.50;;
50900;SDS011;36879;51.416;6.678;2022-08-25T15:36:55;2.03;;;1.38;;
50900;SDS011;36879;51.416;6.678;2022-08-25T15:39:22;3.33;;;1.85;;
50900;SDS011;36879;51.416;6.678;2022-08-25T15:41:48;2.67;;;1.45;;
50900;SDS011;36879;51.416;6.678;2022-08-25T15:44:18;2.38;;;1.58;;
50900;SDS011;36879;51.416;6.678;2022-08-25T15:46:45;5.15;;;1.88;;
50900;SDS011;36879;51.416;6.678;2022-08-25T15:49:11;2.63;;;1.50;;
50900;SDS011;36879;51.416;6.678;2022-08-25T15:51:37;2.13;;;1.58;;
50900;SDS011;36879;51.416;6.678;2022-08-25T15:54:03;4.57;;;1.63;;
50900;SDS011;36879;51.416;6.678;2022-08-25T15:56:29;5.03;;;1.92;;
50900;SDS011;36879;51.416;6.678;2022-08-25T15:58:55;3.47;;;2.10;;
50900;SDS011;36879;51.416;6.678;2022-08-25T16:01:23;4.85;;;1.65;;
50900;SDS011;36879;51.416;6.678;2022-08-25T16:03:49;3.50;;;2.45;;
50900;SDS011;36879;51.416;6.678;2022-08-25T16:06:15;4.38;;;1.92;;
50900;SDS011;36879;51.416;6.678;2022-08-25T16:08:42;3.53;;;1.58;;
50900;SDS011;36879;51.416;6.678;2022-08-25T16:11:25;2.47;;;1.50;;
50900;SDS011;36879;51.416;6.678;2022-08-25T16:16:22;2.83;;;1.58;;
50900;SDS011;36879;51.416;6.678;2022-08-25T16:18:49;2.95;;;1.67;;
50900;SDS011;36879;51.416;6.678;2022-08-25T16:21:19;2.78;;;1.83;;
50900;SDS011;36879;51.416;6.678;2022-08-25T16:23:48;4.57;;;1.50;;
50900;SDS011;36879;51.416;6.678;2022-08-25T16:26:15;3.88;;;2.38;;
50900;SDS011;36879;51.416;6.678;2022-08-25T16:28:41;3.92;;;1.83;;
50900;SDS011;36879;51.416;6.678;2022-08-25T16:31:09;2.70;;;1.63;;
50900;SDS011;36879;51.416;6.678;2022-08-25T16:33:36;5.20;;;2.50;;
50900;SDS011;36879;51.416;6.678;2022-08-25T16:36:09;2.35;;;1.55;;
50900;SDS011;36879;51.416;6.678;2022-08-25T16:38:37;3.45;;;1.50;;
50900;SDS011;36879;51.416;6.678;2022-08-25T16:41:04;2.17;;;1.35;;
50900;SDS011;36879;51.416;6.678;2022-08-25T16:43:30;6.90;;;1.98;;